sensor_id;sensor_type;location;lat;lon;timestamp;temperature;humidity
19803;DHT22;66074;50.764;6.090;2023-05-10T00:01:05;14.60;99.90
19803;DHT22;66074;50.764;6.090;2023-05-10T00:03:31;14.50;99.90
19803;DHT22;66074;50.764;6.090;2023-05-10T00:05:57;14.60;99.90
19803;DHT22;66074;50.764;6.090;2023-05-10T00:08:22;14.60;99.90
19803;DHT22;66074;50.764;6.090;2023-05-10T00:10:49;14.60;99.90
19803;DHT22;66074;50.764;6.090;2023-05-10T00:13:14;14.60;99.90
19803;DHT22;66074;50.764;6.090;2023-05-10T00:15:40;14.60;99.90
19803;DHT22;66074;50.764;6.090;2023-05-10T00:18:06;14.60;99.90
19803;DHT22;66074;50.764;6.090;2023-05-10T00:20:31;14.50;99.90
19803;DHT22;66074;50.764;6.090;2023-05-10T00:22:57;14.60;99.90
19803;DHT22;66074;50.764;6.090;2023-05-10T00:25:23;14.50;99.90
19803;DHT22;66074;50.764;6.090;2023-05-10T00:27:48;14.60;99.90
19803;DHT22;66074;50.764;6.090;2023-05-10T00:30:15;14.60;99.90
19803;DHT22;66074;50.764;6.090;2023-05-10T00:32:40;14.60;99.90
19803;DHT22;66074;50.764;6.090;2023-05-10T00:35:06;14.60;99.90
19803;DHT22;66074;50.764;6.090;2023-05-10T00:37:32;14.60;99.90
19803;DHT22;66074;50.764;6.090;2023-05-10T00:39:58;14.60;99.90
19803;DHT22;66074;50.764;6.090;2023-05-10T00:42:24;14.60;99.90
19803;DHT22;66074;50.764;6.090;2023-05-10T00:44:49;14.60;99.90
19803;DHT22;66074;50.764;6.090;2023-05-10T00:47:16;14.60;99.90
19803;DHT22;66074;50.764;6.090;2023-05-10T00:49:42;14.60;99.90
19803;DHT22;66074;50.764;6.090;2023-05-10T00:52:09;14.50;99.90
19803;DHT22;66074;50.764;6.090;2023-05-10T00:54:35;14.50;99.90
19803;DHT22;66074;50.764;6.090;2023-05-10T00:57:01;14.50;99.90
19803;DHT22;66074;50.764;6.090;2023-05-10T00:59:27;14.50;99.90
19803;DHT22;66074;50.764;6.090;2023-05-10T01:01:54;14.50;99.90
19803;DHT22;66074;50.764;6.090;2023-05-10T01:04:19;14.50;99.90
19803;DHT22;66074;50.764;6.090;2023-05-10T01:06:53;14.50;99.90
19803;DHT22;66074;50.764;6.090;2023-05-10T01:09:20;14.50;99.90
19803;DHT22;66074;50.764;6.090;2023-05-10T01:11:47;14.40;99.90
19803;DHT22;66074;50.764;6.090;2023-05-10T01:14:13;14.50;99.90
19803;DHT22;66074;50.764;6.090;2023-05-10T01:16:42;14.50;99.90
19803;DHT22;66074;50.764;6.090;2023-05-10T01:19:19;14.50;99.90
19803;DHT22;66074;50.764;6.090;2023-05-10T01:24:48;14.40;99.90
19803;DHT22;66074;50.764;6.090;2023-05-10T01:33:11;14.40;99.90
19803;DHT22;66074;50.764;6.090;2023-05-10T01:41:17;14.30;99.90
19803;DHT22;66074;50.764;6.090;2023-05-10T01:43:57;14.30;99.90
19803;DHT22;66074;50.764;6.090;2023-05-10T01:46:32;14.30;99.90
19803;DHT22;66074;50.764;6.090;2023-05-10T01:49:00;14.40;99.90
19803;DHT22;66074;50.764;6.090;2023-05-10T01:51:34;14.40;99.90
19803;DHT22;66074;50.764;6.090;2023-05-10T01:54:02;14.40;99.90
19803;DHT22;66074;50.764;6.090;2023-05-10T01:56:31;14.30;99.90
19803;DHT22;66074;50.764;6.090;2023-05-10T01:58:59;14.30;99.90
19803;DHT22;66074;50.764;6.090;2023-05-10T02:01:26;14.30;99.90
19803;DHT22;66074;50.764;6.090;2023-05-10T02:03:53;14.30;99.90
19803;DHT22;66074;50.764;6.090;2023-05-10T02:06:20;14.30;99.90
19803;DHT22;66074;50.764;6.090;2023-05-10T02:08:49;14.30;99.90
19803;DHT22;66074;50.764;6.090;2023-05-10T02:11:17;14.40;99.90
19803;DHT22;66074;50.764;6.090;2023-05-10T02:13:44;14.30;99.90
19803;DHT22;66074;50.764;6.090;2023-05-10T02:16:13;14.30;99.90
19803;DHT22;66074;50.764;6.090;2023-05-10T02:18:40;14.30;99.90
19803;DHT22;66074;50.764;6.090;2023-05-10T02:21:07;14.30;99.90
19803;DHT22;66074;50.764;6.090;2023-05-10T02:23:34;14.30;99.90
19803;DHT22;66074;50.764;6.090;2023-05-10T02:26:01;14.20;99.90
19803;DHT22;66074;50.764;6.090;2023-05-10T02:28:28;14.20;99.90
19803;DHT22;66074;50.764;6.090;2023-05-10T02:30:55;14.20;99.90
19803;DHT22;66074;50.764;6.090;2023-05-10T02:33:22;14.20;99.90
19803;DHT22;66074;50.764;6.090;2023-05-10T02:35:48;14.20;99.90
19803;DHT22;66074;50.764;6.090;2023-05-10T02:38:15;14.20;99.90
19803;DHT22;66074;50.764;6.090;2023-05-10T02:40:42;14.10;99.90
19803;DHT22;66074;50.764;6.090;2023-05-10T02:43:12;14.10;99.90
19803;DHT22;66074;50.764;6.090;2023-05-10T02:45:40;14.20;99.90
19803;DHT22;66074;50.764;6.090;2023-05-10T02:48:06;14.10;99.90
19803;DHT22;66074;50.764;6.090;2023-05-10T02:50:33;14.10;99.90
19803;DHT22;66074;50.764;6.090;2023-05-10T02:53:09;14.10;99.90
19803;DHT22;66074;50.764;6.090;2023-05-10T02:55:38;14.10;99.90
19803;DHT22;66074;50.764;6.090;2023-05-10T02:58:06;14.10;99.90
19803;DHT22;66074;50.764;6.090;2023-05-10T03:00:31;14.10;99.90
19803;DHT22;66074;50.764;6.090;2023-05-10T03:02:58;14.10;99.90
19803;DHT22;66074;50.764;6.090;2023-05-10T03:05:23;14.10;99.90
19803;DHT22;66074;50.764;6.090;2023-05-10T03:07:49;14.10;99.90
19803;DHT22;66074;50.764;6.090;2023-05-10T03:10:16;14.10;99.90
19803;DHT22;66074;50.764;6.090;2023-05-10T03:15:31;14.10;99.90
19803;DHT22;66074;50.764;6.090;2023-05-10T03:18:07;14.00;99.90
19803;DHT22;66074;50.764;6.090;2023-05-10T03:21:04;14.00;99.90
19803;DHT22;66074;50.764;6.090;2023-05-10T03:23:54;14.00;99.90
19803;DHT22;66074;50.764;6.090;2023-05-10T03:26:26;14.00;99.90
19803;DHT22;66074;50.764;6.090;2023-05-10T03:28:52;14.00;99.90
19803;DHT22;66074;50.764;6.090;2023-05-10T03:31:18;14.00;99.90
19803;DHT22;66074;50.764;6.090;2023-05-10T03:33:51;14.00;99.90
19803;DHT22;66074;50.764;6.090;2023-05-10T03:36:17;14.00;99.90
19803;DHT22;66074;50.764;6.090;2023-05-10T03:38:43;13.90;99.90
19803;DHT22;66074;50.764;6.090;2023-05-10T03:41:09;13.90;99.90
19803;DHT22;66074;50.764;6.090;2023-05-10T03:43:34;13.90;99.90
19803;DHT22;66074;50.764;6.090;2023-05-10T03:46:04;13.90;99.90
19803;DHT22;66074;50.764;6.090;2023-05-10T03:48:30;13.90;99.90
19803;DHT22;66074;50.764;6.090;2023-05-10T03:50:57;13.90;99.90
19803;DHT22;66074;50.764;6.090;2023-05-10T03:53:22;13.90;99.90
19803;DHT22;66074;50.764;6.090;2023-05-10T03:55:48;13.90;99.90
19803;DHT22;66074;50.764;6.090;2023-05-10T03:58:14;13.90;99.90
19803;DHT22;66074;50.764;6.090;2023-05-10T04:00:40;14.00;99.90
19803;DHT22;66074;50.764;6.090;2023-05-10T04:03:11;14.00;99.90
19803;DHT22;66074;50.764;6.090;2023-05-10T04:05:37;14.00;99.90
19803;DHT22;66074;50.764;6.090;2023-05-10T04:08:03;14.00;99.90
19803;DHT22;66074;50.764;6.090;2023-05-10T04:10:29;14.10;99.90
19803;DHT22;66074;50.764;6.090;2023-05-10T04:12:55;14.00;99.90
19803;DHT22;66074;50.764;6.090;2023-05-10T04:15:20;14.10;99.90
19803;DHT22;66074;50.764;6.090;2023-05-10T04:17:46;14.10;99.90
19803;DHT22;66074;50.764;6.090;2023-05-10T04:20:12;14.10;99.90
19803;DHT22;66074;50.764;6.090;2023-05-10T04:22:38;14.10;99.90
19803;DHT22;66074;50.764;6.090;2023-05-10T04:25:04;14.00;99.90
19803;DHT22;66074;50.764;6.090;2023-05-10T04:27:30;14.00;99.90
19803;DHT22;66074;50.764;6.090;2023-05-10T04:29:56;14.00;99.90
19803;DHT22;66074;50.764;6.090;2023-05-10T04:32:22;14.00;99.90
19803;DHT22;66074;50.764;6.090;2023-05-10T04:34:48;14.00;99.90
19803;DHT22;66074;50.764;6.090;2023-05-10T04:37:13;14.10;99.90
19803;DHT22;66074;50.764;6.090;2023-05-10T04:39:39;14.10;99.90
19803;DHT22;66074;50.764;6.090;2023-05-10T04:42:04;14.10;99.90
19803;DHT22;66074;50.764;6.090;2023-05-10T04:44:31;14.10;99.90
19803;DHT22;66074;50.764;6.090;2023-05-10T04:46:57;14.10;99.90
19803;DHT22;66074;50.764;6.090;2023-05-10T04:49:22;14.10;99.90
19803;DHT22;66074;50.764;6.090;2023-05-10T04:51:48;14.10;99.90
19803;DHT22;66074;50.764;6.090;2023-05-10T04:54:14;14.10;99.90
19803;DHT22;66074;50.764;6.090;2023-05-10T04:56:39;14.10;99.90
19803;DHT22;66074;50.764;6.090;2023-05-10T04:59:06;14.00;99.90
19803;DHT22;66074;50.764;6.090;2023-05-10T05:01:32;14.10;99.90
19803;DHT22;66074;50.764;6.090;2023-05-10T05:03:57;14.00;99.90
19803;DHT22;66074;50.764;6.090;2023-05-10T05:06:23;14.00;99.90
19803;DHT22;66074;50.764;6.090;2023-05-10T05:08:50;14.00;99.90
19803;DHT22;66074;50.764;6.090;2023-05-10T05:11:16;14.00;99.90
19803;DHT22;66074;50.764;6.090;2023-05-10T05:13:42;14.10;99.90
19803;DHT22;66074;50.764;6.090;2023-05-10T05:16:08;14.10;99.90
19803;DHT22;66074;50.764;6.090;2023-05-10T05:18:34;14.10;99.90
19803;DHT22;66074;50.764;6.090;2023-05-10T05:21:00;14.20;99.90
19803;DHT22;66074;50.764;6.090;2023-05-10T05:23:26;14.10;99.90
19803;DHT22;66074;50.764;6.090;2023-05-10T05:25:52;14.10;99.90
19803;DHT22;66074;50.764;6.090;2023-05-10T05:28:22;14.20;99.90
19803;DHT22;66074;50.764;6.090;2023-05-10T05:30:47;14.20;99.90
19803;DHT22;66074;50.764;6.090;2023-05-10T05:33:14;14.20;99.90
19803;DHT22;66074;50.764;6.090;2023-05-10T05:35:41;14.20;99.90
19803;DHT22;66074;50.764;6.090;2023-05-10T05:38:08;14.20;99.90
19803;DHT22;66074;50.764;6.090;2023-05-10T05:40:33;14.30;99.90
19803;DHT22;66074;50.764;6.090;2023-05-10T05:42:59;14.30;99.90
19803;DHT22;66074;50.764;6.090;2023-05-10T05:45:25;14.30;99.90
19803;DHT22;66074;50.764;6.090;2023-05-10T05:47:50;14.20;99.90
19803;DHT22;66074;50.764;6.090;2023-05-10T05:50:16;14.20;99.90
19803;DHT22;66074;50.764;6.090;2023-05-10T05:52:42;14.20;99.90
19803;DHT22;66074;50.764;6.090;2023-05-10T05:55:07;14.30;99.90
19803;DHT22;66074;50.764;6.090;2023-05-10T05:57:33;14.30;99.90
19803;DHT22;66074;50.764;6.090;2023-05-10T05:59:58;14.30;99.90
19803;DHT22;66074;50.764;6.090;2023-05-10T06:02:24;14.40;99.90
19803;DHT22;66074;50.764;6.090;2023-05-10T06:04:50;14.50;99.90
19803;DHT22;66074;50.764;6.090;2023-05-10T06:07:16;14.50;99.90
19803;DHT22;66074;50.764;6.090;2023-05-10T06:09:41;14.50;99.90
19803;DHT22;66074;50.764;6.090;2023-05-10T06:12:07;14.50;99.90
19803;DHT22;66074;50.764;6.090;2023-05-10T06:14:33;14.50;99.90
19803;DHT22;66074;50.764;6.090;2023-05-10T06:16:58;14.50;99.90
19803;DHT22;66074;50.764;6.090;2023-05-10T06:19:25;14.50;99.90
19803;DHT22;66074;50.764;6.090;2023-05-10T06:21:51;14.50;99.90
19803;DHT22;66074;50.764;6.090;2023-05-10T06:24:17;14.60;99.90
19803;DHT22;66074;50.764;6.090;2023-05-10T06:26:43;14.60;99.90
19803;DHT22;66074;50.764;6.090;2023-05-10T06:29:08;14.80;99.90
19803;DHT22;66074;50.764;6.090;2023-05-10T06:31:34;14.70;99.90
19803;DHT22;66074;50.764;6.090;2023-05-10T06:33:59;14.70;99.90
19803;DHT22;66074;50.764;6.090;2023-05-10T06:36:25;14.60;99.90
19803;DHT22;66074;50.764;6.090;2023-05-10T06:38:51;14.60;99.90
19803;DHT22;66074;50.764;6.090;2023-05-10T06:41:17;14.60;99.90
19803;DHT22;66074;50.764;6.090;2023-05-10T06:43:42;14.50;99.90
19803;DHT22;66074;50.764;6.090;2023-05-10T06:46:09;14.50;99.90
19803;DHT22;66074;50.764;6.090;2023-05-10T06:48:34;14.30;99.90
19803;DHT22;66074;50.764;6.090;2023-05-10T06:51:00;14.20;99.90
19803;DHT22;66074;50.764;6.090;2023-05-10T06:53:26;14.20;99.90
19803;DHT22;66074;50.764;6.090;2023-05-10T06:55:51;14.20;99.90
19803;DHT22;66074;50.764;6.090;2023-05-10T06:58:17;14.10;99.90
19803;DHT22;66074;50.764;6.090;2023-05-10T07:00:43;14.10;99.90
19803;DHT22;66074;50.764;6.090;2023-05-10T07:03:10;14.10;99.90
19803;DHT22;66074;50.764;6.090;2023-05-10T07:05:36;14.00;99.90
19803;DHT22;66074;50.764;6.090;2023-05-10T07:08:01;14.00;99.90
19803;DHT22;66074;50.764;6.090;2023-05-10T07:10:27;14.00;99.90
19803;DHT22;66074;50.764;6.090;2023-05-10T07:12:53;13.90;99.90
19803;DHT22;66074;50.764;6.090;2023-05-10T07:15:18;13.90;99.90
19803;DHT22;66074;50.764;6.090;2023-05-10T07:17:44;13.90;99.90
19803;DHT22;66074;50.764;6.090;2023-05-10T07:20:11;13.90;99.90
19803;DHT22;66074;50.764;6.090;2023-05-10T07:22:36;14.00;99.90
19803;DHT22;66074;50.764;6.090;2023-05-10T07:25:02;13.90;99.90
19803;DHT22;66074;50.764;6.090;2023-05-10T07:27:28;13.90;99.90
19803;DHT22;66074;50.764;6.090;2023-05-10T07:29:53;13.90;99.90
19803;DHT22;66074;50.764;6.090;2023-05-10T07:32:20;13.90;99.90
19803;DHT22;66074;50.764;6.090;2023-05-10T07:34:45;14.00;99.90
19803;DHT22;66074;50.764;6.090;2023-05-10T07:37:11;14.00;99.90
19803;DHT22;66074;50.764;6.090;2023-05-10T07:39:37;14.00;99.90
19803;DHT22;66074;50.764;6.090;2023-05-10T07:42:03;14.10;99.90
19803;DHT22;66074;50.764;6.090;2023-05-10T07:44:28;14.10;99.90
19803;DHT22;66074;50.764;6.090;2023-05-10T07:46:54;14.10;99.90
19803;DHT22;66074;50.764;6.090;2023-05-10T07:49:20;14.20;99.90
19803;DHT22;66074;50.764;6.090;2023-05-10T07:51:46;14.10;99.90
19803;DHT22;66074;50.764;6.090;2023-05-10T07:54:12;14.20;99.90
19803;DHT22;66074;50.764;6.090;2023-05-10T07:56:38;14.20;99.90
19803;DHT22;66074;50.764;6.090;2023-05-10T07:59:05;14.30;99.90
19803;DHT22;66074;50.764;6.090;2023-05-10T08:01:33;14.30;99.90
19803;DHT22;66074;50.764;6.090;2023-05-10T08:03:59;14.40;99.90
19803;DHT22;66074;50.764;6.090;2023-05-10T08:06:25;14.40;99.90
19803;DHT22;66074;50.764;6.090;2023-05-10T08:08:52;14.40;99.90
19803;DHT22;66074;50.764;6.090;2023-05-10T08:11:20;14.40;99.90
19803;DHT22;66074;50.764;6.090;2023-05-10T08:13:46;14.40;99.90
19803;DHT22;66074;50.764;6.090;2023-05-10T08:16:12;14.40;99.90
19803;DHT22;66074;50.764;6.090;2023-05-10T08:18:38;14.40;99.90
19803;DHT22;66074;50.764;6.090;2023-05-10T08:21:04;14.40;99.90
19803;DHT22;66074;50.764;6.090;2023-05-10T08:23:30;14.40;99.90
19803;DHT22;66074;50.764;6.090;2023-05-10T08:25:56;14.50;99.90
19803;DHT22;66074;50.764;6.090;2023-05-10T08:28:22;14.60;99.90
19803;DHT22;66074;50.764;6.090;2023-05-10T08:30:47;14.70;99.90
19803;DHT22;66074;50.764;6.090;2023-05-10T08:33:13;14.80;99.90
19803;DHT22;66074;50.764;6.090;2023-05-10T08:35:39;14.80;99.90
19803;DHT22;66074;50.764;6.090;2023-05-10T08:38:04;14.90;99.90
19803;DHT22;66074;50.764;6.090;2023-05-10T08:40:30;14.80;99.90
19803;DHT22;66074;50.764;6.090;2023-05-10T08:43:05;14.80;99.90
19803;DHT22;66074;50.764;6.090;2023-05-10T08:45:33;14.70;99.90
19803;DHT22;66074;50.764;6.090;2023-05-10T08:48:02;14.70;99.90
19803;DHT22;66074;50.764;6.090;2023-05-10T08:50:27;14.70;99.90
19803;DHT22;66074;50.764;6.090;2023-05-10T08:53:00;14.70;99.90
19803;DHT22;66074;50.764;6.090;2023-05-10T08:55:29;14.70;99.90
19803;DHT22;66074;50.764;6.090;2023-05-10T08:57:55;14.80;99.90
19803;DHT22;66074;50.764;6.090;2023-05-10T09:00:22;14.80;99.90
19803;DHT22;66074;50.764;6.090;2023-05-10T09:02:49;14.90;99.90
19803;DHT22;66074;50.764;6.090;2023-05-10T09:05:15;15.00;99.90
19803;DHT22;66074;50.764;6.090;2023-05-10T09:07:41;15.10;99.90
19803;DHT22;66074;50.764;6.090;2023-05-10T09:10:08;15.10;99.90
19803;DHT22;66074;50.764;6.090;2023-05-10T09:12:35;15.10;99.90
19803;DHT22;66074;50.764;6.090;2023-05-10T09:15:01;15.20;99.90
19803;DHT22;66074;50.764;6.090;2023-05-10T09:17:27;15.20;99.90
19803;DHT22;66074;50.764;6.090;2023-05-10T09:20:00;15.30;99.90
19803;DHT22;66074;50.764;6.090;2023-05-10T09:22:27;15.40;99.90
19803;DHT22;66074;50.764;6.090;2023-05-10T09:25:09;15.40;99.90
19803;DHT22;66074;50.764;6.090;2023-05-10T09:27:35;15.60;99.90
19803;DHT22;66074;50.764;6.090;2023-05-10T09:30:02;15.70;99.90
19803;DHT22;66074;50.764;6.090;2023-05-10T09:32:43;15.70;99.90
19803;DHT22;66074;50.764;6.090;2023-05-10T09:35:09;15.80;99.90
19803;DHT22;66074;50.764;6.090;2023-05-10T09:37:35;15.90;99.90
19803;DHT22;66074;50.764;6.090;2023-05-10T09:40:05;16.00;99.90
19803;DHT22;66074;50.764;6.090;2023-05-10T09:42:31;16.10;99.90
19803;DHT22;66074;50.764;6.090;2023-05-10T09:45:04;16.20;99.90
19803;DHT22;66074;50.764;6.090;2023-05-10T09:47:34;16.10;99.90
19803;DHT22;66074;50.764;6.090;2023-05-10T09:50:02;16.10;99.90
19803;DHT22;66074;50.764;6.090;2023-05-10T09:52:29;16.10;99.90
19803;DHT22;66074;50.764;6.090;2023-05-10T09:54:55;16.20;99.90
19803;DHT22;66074;50.764;6.090;2023-05-10T09:57:22;16.30;99.90
19803;DHT22;66074;50.764;6.090;2023-05-10T09:59:49;16.40;99.90
19803;DHT22;66074;50.764;6.090;2023-05-10T10:02:16;16.50;99.90
19803;DHT22;66074;50.764;6.090;2023-05-10T10:04:43;16.50;99.90
19803;DHT22;66074;50.764;6.090;2023-05-10T10:07:09;16.50;99.90
19803;DHT22;66074;50.764;6.090;2023-05-10T10:09:35;16.50;99.90
19803;DHT22;66074;50.764;6.090;2023-05-10T10:12:01;16.60;99.90
19803;DHT22;66074;50.764;6.090;2023-05-10T10:14:28;16.70;99.90
19803;DHT22;66074;50.764;6.090;2023-05-10T10:16:54;16.80;99.90
19803;DHT22;66074;50.764;6.090;2023-05-10T10:19:20;16.90;99.90
19803;DHT22;66074;50.764;6.090;2023-05-10T10:21:47;17.00;99.90
19803;DHT22;66074;50.764;6.090;2023-05-10T10:24:13;17.00;99.90
19803;DHT22;66074;50.764;6.090;2023-05-10T10:26:39;17.20;99.90
19803;DHT22;66074;50.764;6.090;2023-05-10T10:29:23;17.30;99.90
19803;DHT22;66074;50.764;6.090;2023-05-10T10:32:03;17.30;99.90
19803;DHT22;66074;50.764;6.090;2023-05-10T10:34:33;17.20;99.90
19803;DHT22;66074;50.764;6.090;2023-05-10T10:37:04;17.30;99.90
19803;DHT22;66074;50.764;6.090;2023-05-10T10:39:30;17.30;99.90
19803;DHT22;66074;50.764;6.090;2023-05-10T10:41:57;17.30;99.90
19803;DHT22;66074;50.764;6.090;2023-05-10T10:49:48;17.20;99.90
19803;DHT22;66074;50.764;6.090;2023-05-10T11:00:31;17.30;99.90
19803;DHT22;66074;50.764;6.090;2023-05-10T11:03:09;17.40;99.90
19803;DHT22;66074;50.764;6.090;2023-05-10T11:05:48;17.40;99.90
19803;DHT22;66074;50.764;6.090;2023-05-10T11:08:33;17.30;99.90
19803;DHT22;66074;50.764;6.090;2023-05-10T11:13:45;17.20;99.90
19803;DHT22;66074;50.764;6.090;2023-05-10T11:16:16;17.20;99.90
19803;DHT22;66074;50.764;6.090;2023-05-10T11:19:12;17.20;99.90
19803;DHT22;66074;50.764;6.090;2023-05-10T11:21:51;17.40;99.90
19803;DHT22;66074;50.764;6.090;2023-05-10T11:24:19;17.60;99.90
19803;DHT22;66074;50.764;6.090;2023-05-10T11:26:45;17.70;99.90
19803;DHT22;66074;50.764;6.090;2023-05-10T11:29:13;17.80;99.90
19803;DHT22;66074;50.764;6.090;2023-05-10T11:31:45;17.80;99.90
19803;DHT22;66074;50.764;6.090;2023-05-10T11:34:13;17.80;99.90
19803;DHT22;66074;50.764;6.090;2023-05-10T11:36:51;17.70;99.90
19803;DHT22;66074;50.764;6.090;2023-05-10T11:39:19;17.50;99.90
19803;DHT22;66074;50.764;6.090;2023-05-10T11:41:48;17.70;99.90
19803;DHT22;66074;50.764;6.090;2023-05-10T11:44:14;17.80;99.90
19803;DHT22;66074;50.764;6.090;2023-05-10T11:46:40;17.90;99.90
19803;DHT22;66074;50.764;6.090;2023-05-10T11:49:07;18.00;99.90
19803;DHT22;66074;50.764;6.090;2023-05-10T11:51:34;17.90;99.90
19803;DHT22;66074;50.764;6.090;2023-05-10T11:54:11;17.80;99.90
19803;DHT22;66074;50.764;6.090;2023-05-10T11:56:38;17.60;99.90
19803;DHT22;66074;50.764;6.090;2023-05-10T11:59:04;17.70;99.90
19803;DHT22;66074;50.764;6.090;2023-05-10T12:01:30;17.70;99.90
19803;DHT22;66074;50.764;6.090;2023-05-10T12:03:57;17.80;99.90
19803;DHT22;66074;50.764;6.090;2023-05-10T12:06:30;17.70;99.90
19803;DHT22;66074;50.764;6.090;2023-05-10T12:08:56;17.60;99.80
19803;DHT22;66074;50.764;6.090;2023-05-10T12:11:26;17.60;99.90
19803;DHT22;66074;50.764;6.090;2023-05-10T12:13:52;17.60;99.70
19803;DHT22;66074;50.764;6.090;2023-05-10T12:16:21;17.60;99.90
19803;DHT22;66074;50.764;6.090;2023-05-10T12:18:50;17.70;99.90
19803;DHT22;66074;50.764;6.090;2023-05-10T12:21:16;17.90;99.90
19803;DHT22;66074;50.764;6.090;2023-05-10T12:23:42;17.80;99.80
19803;DHT22;66074;50.764;6.090;2023-05-10T12:26:10;17.90;99.80
19803;DHT22;66074;50.764;6.090;2023-05-10T12:28:37;17.90;99.80
19803;DHT22;66074;50.764;6.090;2023-05-10T12:31:03;17.90;99.70
19803;DHT22;66074;50.764;6.090;2023-05-10T12:33:43;18.00;99.60
19803;DHT22;66074;50.764;6.090;2023-05-10T12:36:10;18.10;99.20
19803;DHT22;66074;50.764;6.090;2023-05-10T12:38:38;18.20;99.50
19803;DHT22;66074;50.764;6.090;2023-05-10T12:41:06;18.20;99.40
19803;DHT22;66074;50.764;6.090;2023-05-10T12:43:33;18.20;99.60
19803;DHT22;66074;50.764;6.090;2023-05-10T12:46:04;18.30;99.70
19803;DHT22;66074;50.764;6.090;2023-05-10T12:48:30;18.40;99.90
19803;DHT22;66074;50.764;6.090;2023-05-10T12:50:56;18.50;99.90
19803;DHT22;66074;50.764;6.090;2023-05-10T12:53:22;18.50;99.90
19803;DHT22;66074;50.764;6.090;2023-05-10T12:55:48;18.70;99.90
19803;DHT22;66074;50.764;6.090;2023-05-10T12:58:14;18.90;99.90
19803;DHT22;66074;50.764;6.090;2023-05-10T13:00:39;19.10;99.90
19803;DHT22;66074;50.764;6.090;2023-05-10T13:03:05;19.10;99.60
19803;DHT22;66074;50.764;6.090;2023-05-10T13:05:33;18.90;99.30
19803;DHT22;66074;50.764;6.090;2023-05-10T13:08:00;18.90;99.20
19803;DHT22;66074;50.764;6.090;2023-05-10T13:10:25;18.70;99.00
19803;DHT22;66074;50.764;6.090;2023-05-10T13:12:51;18.50;98.90
19803;DHT22;66074;50.764;6.090;2023-05-10T13:15:17;18.40;99.10
19803;DHT22;66074;50.764;6.090;2023-05-10T13:17:43;18.30;99.10
19803;DHT22;66074;50.764;6.090;2023-05-10T13:20:09;18.00;99.30
19803;DHT22;66074;50.764;6.090;2023-05-10T13:22:35;17.80;99.50
19803;DHT22;66074;50.764;6.090;2023-05-10T13:25:01;17.80;99.70
19803;DHT22;66074;50.764;6.090;2023-05-10T13:27:27;17.70;99.80
19803;DHT22;66074;50.764;6.090;2023-05-10T13:29:53;17.80;99.90
19803;DHT22;66074;50.764;6.090;2023-05-10T13:32:20;17.80;99.90
19803;DHT22;66074;50.764;6.090;2023-05-10T13:34:46;17.90;99.90
19803;DHT22;66074;50.764;6.090;2023-05-10T13:37:11;18.00;99.90
19803;DHT22;66074;50.764;6.090;2023-05-10T13:39:37;18.10;99.90
19803;DHT22;66074;50.764;6.090;2023-05-10T13:42:03;18.20;99.70
19803;DHT22;66074;50.764;6.090;2023-05-10T13:44:29;18.30;99.50
19803;DHT22;66074;50.764;6.090;2023-05-10T13:46:56;18.30;99.50
19803;DHT22;66074;50.764;6.090;2023-05-10T13:49:21;18.40;99.30
19803;DHT22;66074;50.764;6.090;2023-05-10T13:51:47;18.70;99.40
19803;DHT22;66074;50.764;6.090;2023-05-10T13:54:13;18.80;99.20
19803;DHT22;66074;50.764;6.090;2023-05-10T13:56:39;18.80;98.90
19803;DHT22;66074;50.764;6.090;2023-05-10T13:59:06;18.70;98.80
19803;DHT22;66074;50.764;6.090;2023-05-10T14:01:33;18.60;98.60
19803;DHT22;66074;50.764;6.090;2023-05-10T14:03:59;18.50;98.60
19803;DHT22;66074;50.764;6.090;2023-05-10T14:06:24;18.40;98.50
19803;DHT22;66074;50.764;6.090;2023-05-10T14:08:50;18.30;98.80
19803;DHT22;66074;50.764;6.090;2023-05-10T14:11:16;18.20;99.00
19803;DHT22;66074;50.764;6.090;2023-05-10T14:13:41;18.20;99.20
19803;DHT22;66074;50.764;6.090;2023-05-10T14:16:07;18.10;99.00
19803;DHT22;66074;50.764;6.090;2023-05-10T14:18:33;17.90;99.20
19803;DHT22;66074;50.764;6.090;2023-05-10T14:20:58;17.80;99.40
19803;DHT22;66074;50.764;6.090;2023-05-10T14:23:24;17.60;99.40
19803;DHT22;66074;50.764;6.090;2023-05-10T14:25:51;17.50;99.50
19803;DHT22;66074;50.764;6.090;2023-05-10T14:28:17;17.50;99.70
19803;DHT22;66074;50.764;6.090;2023-05-10T14:30:46;17.40;99.60
19803;DHT22;66074;50.764;6.090;2023-05-10T14:33:12;17.30;99.70
19803;DHT22;66074;50.764;6.090;2023-05-10T14:35:38;17.20;99.80
19803;DHT22;66074;50.764;6.090;2023-05-10T14:38:04;17.10;99.90
19803;DHT22;66074;50.764;6.090;2023-05-10T14:40:30;17.00;99.90
19803;DHT22;66074;50.764;6.090;2023-05-10T14:42:56;17.00;99.90
19803;DHT22;66074;50.764;6.090;2023-05-10T14:45:22;16.90;99.90
19803;DHT22;66074;50.764;6.090;2023-05-10T14:47:48;16.70;99.90
19803;DHT22;66074;50.764;6.090;2023-05-10T14:50:14;16.70;99.90
19803;DHT22;66074;50.764;6.090;2023-05-10T14:52:40;16.70;99.90
19803;DHT22;66074;50.764;6.090;2023-05-10T14:55:06;16.70;99.90
19803;DHT22;66074;50.764;6.090;2023-05-10T14:57:32;16.70;99.90
19803;DHT22;66074;50.764;6.090;2023-05-10T14:59:58;16.60;99.90
19803;DHT22;66074;50.764;6.090;2023-05-10T15:02:24;16.60;99.90
19803;DHT22;66074;50.764;6.090;2023-05-10T15:04:50;16.70;99.90
19803;DHT22;66074;50.764;6.090;2023-05-10T15:07:16;16.70;99.90
19803;DHT22;66074;50.764;6.090;2023-05-10T15:09:46;16.60;99.90
19803;DHT22;66074;50.764;6.090;2023-05-10T15:12:12;16.60;99.90
19803;DHT22;66074;50.764;6.090;2023-05-10T15:14:37;16.60;99.90
19803;DHT22;66074;50.764;6.090;2023-05-10T15:17:05;16.70;99.90
19803;DHT22;66074;50.764;6.090;2023-05-10T15:19:31;16.70;99.90
19803;DHT22;66074;50.764;6.090;2023-05-10T15:21:58;16.70;99.90
19803;DHT22;66074;50.764;6.090;2023-05-10T15:24:24;16.70;99.90
19803;DHT22;66074;50.764;6.090;2023-05-10T15:26:50;16.70;99.90
19803;DHT22;66074;50.764;6.090;2023-05-10T15:29:15;16.70;99.90
19803;DHT22;66074;50.764;6.090;2023-05-10T15:31:46;16.80;99.90
19803;DHT22;66074;50.764;6.090;2023-05-10T15:34:14;16.80;99.90
19803;DHT22;66074;50.764;6.090;2023-05-10T15:36:39;16.90;99.90
19803;DHT22;66074;50.764;6.090;2023-05-10T15:39:05;16.90;99.90
19803;DHT22;66074;50.764;6.090;2023-05-10T15:41:31;17.00;99.90
19803;DHT22;66074;50.764;6.090;2023-05-10T15:43:57;17.10;99.90
19803;DHT22;66074;50.764;6.090;2023-05-10T15:46:25;17.30;99.90
19803;DHT22;66074;50.764;6.090;2023-05-10T15:48:51;17.60;99.90
19803;DHT22;66074;50.764;6.090;2023-05-10T15:51:17;18.00;99.90
19803;DHT22;66074;50.764;6.090;2023-05-10T15:53:44;18.30;99.90
19803;DHT22;66074;50.764;6.090;2023-05-10T15:56:10;18.50;99.80
19803;DHT22;66074;50.764;6.090;2023-05-10T15:58:37;18.70;99.50
19803;DHT22;66074;50.764;6.090;2023-05-10T16:01:04;18.80;99.10
19803;DHT22;66074;50.764;6.090;2023-05-10T16:03:35;18.70;99.00